createdAt,value
2018-07-28T00:00:23.842Z,21.30
2018-07-28T00:01:23.798Z,21.33
2018-07-28T00:02:23.751Z,21.29
2018-07-28T00:03:23.706Z,21.21
2018-07-28T00:04:23.644Z,21.21
2018-07-28T00:05:23.629Z,21.25
2018-07-28T00:06:23.581Z,21.07
2018-07-28T00:07:23.529Z,21.15
2018-07-28T00:08:23.462Z,21.18
2018-07-28T00:09:23.420Z,21.07
2018-07-28T00:10:23.402Z,21.07
2018-07-28T00:11:23.357Z,21.05
2018-07-28T00:12:23.308Z,21.03
2018-07-28T00:13:23.257Z,21.14
2018-07-28T00:14:23.234Z,21.17
2018-07-28T00:15:23.175Z,21.20
2018-07-28T00:16:23.097Z,21.18
2018-07-28T00:17:23.071Z,21.20
2018-07-28T00:18:23.036Z,21.15
2018-07-28T00:19:22.981Z,21.21
2018-07-28T00:20:22.946Z,21.06
2018-07-28T00:21:22.882Z,21.00
2018-07-28T00:22:22.831Z,21.15
2018-07-28T00:23:22.813Z,21.07
2018-07-28T00:24:22.764Z,21.06
2018-07-28T00:25:22.692Z,21.02
2018-07-28T00:26:22.669Z,21.03
2018-07-28T00:27:22.636Z,21.14
2018-07-28T00:28:22.578Z,21.17
2018-07-28T00:29:22.535Z,21.12
2018-07-28T00:30:22.496Z,21.20
2018-07-28T00:31:22.448Z,21.18
2018-07-28T00:32:22.385Z,21.07
2018-07-28T00:33:22.358Z,21.11
2018-07-28T00:34:22.305Z,20.93
2018-07-28T00:35:22.254Z,20.90
2018-07-28T00:36:22.223Z,20.92
2018-07-28T00:37:22.173Z,20.93
2018-07-28T00:38:22.124Z,20.84
2018-07-28T00:39:22.087Z,20.87
2018-07-28T00:40:22.043Z,20.90
2018-07-28T00:41:21.996Z,20.87
2018-07-28T00:42:21.949Z,20.96
2018-07-28T00:43:21.893Z,20.80
2018-07-28T00:44:21.852Z,20.81
2018-07-28T00:45:21.812Z,20.78
2018-07-28T00:46:21.769Z,20.81
2018-07-28T00:47:21.716Z,20.85
2018-07-28T00:48:21.670Z,20.80
2018-07-28T00:49:21.632Z,21.00
2018-07-28T00:50:21.583Z,20.90
2018-07-28T00:51:21.544Z,21.02
2018-07-28T00:52:21.485Z,20.88
2018-07-28T00:53:21.438Z,20.96
2018-07-28T00:54:21.374Z,20.96
2018-07-28T00:55:21.347Z,20.87
2018-07-28T00:56:21.316Z,20.96
2018-07-28T00:57:21.261Z,20.95
2018-07-28T00:58:21.220Z,20.97
2018-07-28T00:59:21.174Z,20.95
2018-07-28T01:00:21.142Z,20.95
2018-07-28T01:01:21.076Z,20.93
2018-07-28T01:02:21.041Z,20.80
2018-07-28T01:03:20.995Z,20.81
2018-07-28T01:04:20.939Z,20.72
2018-07-28T01:05:20.900Z,20.75
2018-07-28T01:06:20.854Z,20.81
2018-07-28T01:07:20.803Z,20.67
2018-07-28T01:08:20.764Z,20.74
2018-07-28T01:09:20.727Z,20.75
2018-07-28T01:10:20.674Z,20.74
2018-07-28T01:11:20.620Z,20.66
2018-07-28T01:12:20.584Z,20.80
2018-07-28T01:13:20.538Z,20.81
2018-07-28T01:14:20.494Z,20.84
2018-07-28T01:15:20.426Z,20.80
2018-07-28T01:16:20.402Z,20.92
2018-07-28T01:17:20.359Z,20.82
2018-07-28T01:18:20.312Z,20.84
2018-07-28T01:19:20.258Z,20.95
2018-07-28T01:20:20.214Z,20.84
2018-07-28T01:21:20.167Z,20.88
2018-07-28T01:22:20.120Z,20.80
2018-07-28T01:23:20.082Z,20.74
2018-07-28T01:24:20.036Z,20.78
2018-07-28T01:25:19.990Z,20.77
2018-07-28T01:26:19.948Z,20.63
2018-07-28T01:27:19.898Z,20.62
2018-07-28T01:28:19.848Z,20.63
2018-07-28T01:29:19.817Z,20.74
2018-07-28T01:30:19.757Z,20.72
2018-07-28T01:31:19.706Z,20.75
2018-07-28T01:32:19.666Z,20.69
2018-07-28T01:33:19.625Z,20.51
2018-07-28T01:34:19.589Z,20.48
2018-07-28T01:35:19.530Z,20.56
2018-07-28T01:36:19.494Z,20.52
2018-07-28T01:37:19.444Z,20.56
2018-07-28T01:38:19.417Z,20.58
2018-07-28T01:39:19.358Z,20.55
2018-07-28T01:40:19.311Z,20.70
2018-07-28T01:41:19.263Z,20.77
2018-07-28T01:42:19.222Z,20.66
2018-07-28T01:43:19.160Z,20.67
2018-07-28T01:44:19.123Z,20.62
2018-07-28T01:45:19.084Z,20.70
2018-07-28T01:46:19.049Z,20.74
2018-07-28T01:47:18.972Z,20.67
2018-07-28T01:48:18.964Z,20.63
2018-07-28T01:49:18.947Z,20.66
2018-07-28T01:50:18.854Z,20.63
2018-07-28T01:51:18.813Z,20.63
2018-07-28T01:52:18.769Z,20.63
2018-07-28T01:53:18.724Z,20.62
2018-07-28T01:54:18.670Z,20.55
2018-07-28T01:55:18.643Z,20.58
2018-07-28T01:56:18.577Z,20.51
2018-07-28T01:57:18.542Z,20.44
2018-07-28T01:58:18.496Z,20.47
2018-07-28T01:59:18.447Z,20.50
2018-07-28T02:00:18.386Z,20.56
2018-07-28T02:01:18.354Z,20.43
2018-07-28T02:02:18.309Z,20.37
2018-07-28T02:03:18.261Z,20.41
2018-07-28T02:04:18.210Z,20.28
2018-07-28T02:05:18.189Z,20.31
2018-07-28T02:06:18.127Z,20.39
2018-07-28T02:07:18.079Z,20.36
2018-07-28T02:08:18.038Z,20.26
2018-07-28T02:09:17.981Z,20.39
2018-07-28T02:10:17.951Z,20.36
2018-07-28T02:11:17.892Z,20.37
2018-07-28T02:12:17.852Z,20.36
2018-07-28T02:13:17.810Z,20.44
2018-07-28T02:14:17.766Z,20.34
2018-07-28T02:15:17.730Z,20.36
2018-07-28T02:16:17.664Z,20.44
2018-07-28T02:17:17.621Z,20.34
2018-07-28T02:18:17.595Z,20.22
2018-07-28T02:19:17.534Z,20.25
2018-07-28T02:20:17.489Z,20.14
2018-07-28T02:21:17.447Z,20.25
2018-07-28T02:22:17.399Z,20.21
2018-07-28T02:23:17.354Z,20.26
2018-07-28T02:24:17.306Z,20.16
2018-07-28T02:25:17.253Z,20.21
2018-07-28T02:26:17.218Z,20.16
2018-07-28T02:27:17.173Z,20.11
2018-07-28T02:28:17.120Z,20.07
2018-07-28T02:29:17.078Z,20.00
2018-07-28T02:30:17.025Z,19.92
2018-07-28T02:31:16.989Z,20.03
2018-07-28T02:32:16.937Z,20.07
2018-07-28T02:33:16.887Z,20.13
2018-07-28T02:34:16.847Z,20.14
2018-07-28T02:35:16.815Z,20.18
2018-07-28T02:36:16.740Z,20.16
2018-07-28T02:37:16.726Z,20.18
2018-07-28T02:38:16.669Z,20.19
2018-07-28T02:39:16.620Z,20.14
2018-07-28T02:40:16.577Z,20.06
2018-07-28T02:41:16.514Z,19.94
2018-07-28T02:42:16.486Z,20.02
2018-07-28T02:43:16.432Z,19.96
2018-07-28T02:44:16.409Z,19.94
2018-07-28T02:45:16.346Z,20.04
2018-07-28T02:46:16.292Z,20.02
2018-07-28T02:47:16.244Z,19.95
2018-07-28T02:48:16.210Z,19.96
2018-07-28T02:49:16.159Z,20.04
2018-07-28T02:50:16.110Z,19.95
2018-07-28T02:51:16.070Z,20.04
2018-07-28T02:52:16.029Z,19.94
2018-07-28T02:53:15.984Z,19.95
2018-07-28T02:54:15.944Z,19.89
2018-07-28T02:55:15.885Z,19.84
2018-07-28T02:56:15.847Z,19.86
2018-07-28T02:57:15.794Z,19.88
2018-07-28T02:58:15.737Z,19.86
2018-07-28T02:59:15.706Z,19.96
2018-07-28T03:00:15.679Z,19.88
2018-07-28T03:01:15.615Z,19.81
2018-07-28T03:02:15.575Z,19.96
2018-07-28T03:03:15.513Z,19.85
2018-07-28T03:04:15.481Z,19.95
2018-07-28T03:05:15.425Z,19.86
2018-07-28T03:06:15.397Z,19.86
2018-07-28T03:07:15.344Z,19.79
2018-07-28T03:08:15.295Z,19.70
2018-07-28T03:09:15.247Z,19.74
2018-07-28T03:10:15.199Z,19.81
2018-07-28T03:11:15.153Z,19.67
2018-07-28T03:12:15.104Z,19.74
2018-07-28T03:13:15.056Z,19.82
2018-07-28T03:14:15.021Z,19.79
2018-07-28T03:15:14.981Z,19.84
2018-07-28T03:16:14.942Z,19.82
2018-07-28T03:17:14.873Z,19.84
2018-07-28T03:18:14.837Z,19.85
2018-07-28T03:19:14.780Z,19.86
2018-07-28T03:20:14.739Z,19.89
2018-07-28T03:21:14.701Z,19.84
2018-07-28T03:22:14.657Z,19.74
2018-07-28T03:23:14.599Z,19.85
2018-07-28T03:24:14.559Z,19.77
2018-07-28T03:25:14.516Z,19.86
2018-07-28T03:26:14.448Z,19.82
2018-07-28T03:27:14.439Z,19.77
2018-07-28T03:28:14.382Z,19.84
2018-07-28T03:29:14.307Z,19.88
2018-07-28T03:30:14.275Z,19.88
2018-07-28T03:31:14.239Z,19.88
2018-07-28T03:32:14.189Z,19.86
2018-07-28T03:33:14.144Z,19.84
2018-07-28T03:34:14.100Z,19.81
2018-07-28T03:35:14.045Z,19.62
2018-07-28T03:36:14.000Z,19.63
2018-07-28T03:37:13.954Z,19.64
2018-07-28T03:38:13.917Z,19.63
2018-07-28T03:39:13.846Z,19.62
2018-07-28T03:40:13.829Z,19.62
2018-07-28T03:41:13.779Z,19.67
2018-07-28T03:42:13.727Z,19.66
2018-07-28T03:43:13.704Z,19.59
2018-07-28T03:44:13.633Z,19.58
2018-07-28T03:45:13.599Z,19.67
2018-07-28T03:46:13.553Z,19.67
2018-07-28T03:47:13.512Z,19.58
2018-07-28T03:48:13.441Z,19.62
2018-07-28T03:49:13.423Z,19.58
2018-07-28T03:50:13.363Z,19.52
2018-07-28T03:51:13.320Z,19.63
2018-07-28T03:52:13.268Z,19.62
2018-07-28T03:53:13.233Z,19.62
2018-07-28T03:54:13.200Z,19.48
2018-07-28T03:55:13.129Z,19.56
2018-07-28T03:56:13.093Z,19.51
2018-07-28T03:57:13.039Z,19.51
2018-07-28T03:58:13.001Z,19.66
2018-07-28T03:59:12.959Z,19.54
2018-07-28T04:00:12.946Z,19.62
2018-07-28T04:01:12.862Z,19.49
2018-07-28T04:02:12.807Z,19.45
2018-07-28T04:03:12.762Z,19.48
2018-07-28T04:04:12.727Z,19.41
2018-07-28T04:05:12.648Z,19.36
2018-07-28T04:06:12.631Z,19.41
2018-07-28T04:07:12.582Z,19.39
2018-07-28T04:08:12.539Z,19.34
2018-07-28T04:09:12.481Z,19.31
2018-07-28T04:10:12.451Z,19.27
2018-07-28T04:11:12.404Z,19.33
2018-07-28T04:12:12.355Z,19.44
2018-07-28T04:13:12.310Z,19.44
2018-07-28T04:14:12.259Z,19.41
2018-07-28T04:15:12.218Z,19.41
2018-07-28T04:16:12.171Z,19.41
2018-07-28T04:17:12.097Z,19.30
2018-07-28T04:18:12.076Z,19.40
2018-07-28T04:19:12.028Z,19.34
2018-07-28T04:20:11.982Z,19.33
2018-07-28T04:21:11.936Z,19.36
2018-07-28T04:22:11.887Z,19.34
2018-07-28T04:23:11.840Z,19.33
2018-07-28T04:24:11.797Z,19.45
2018-07-28T04:25:11.736Z,19.45
2018-07-28T04:26:11.726Z,19.31
2018-07-28T04:27:11.667Z,19.36
2018-07-28T04:28:11.615Z,19.37
2018-07-28T04:29:11.577Z,19.29
2018-07-28T04:30:11.526Z,19.33
2018-07-28T04:31:11.484Z,19.29
2018-07-28T04:32:11.425Z,19.22
2018-07-28T04:33:11.384Z,19.21
2018-07-28T04:34:11.339Z,19.24
2018-07-28T04:35:11.295Z,19.19
2018-07-28T04:36:11.248Z,19.29
2018-07-28T04:37:11.258Z,19.29
2018-07-28T04:38:11.154Z,19.18
2018-07-28T04:39:11.112Z,19.19
2018-07-28T04:40:11.039Z,19.19
2018-07-28T04:41:11.021Z,19.27
2018-07-28T04:42:10.953Z,19.18
2018-07-28T04:43:10.922Z,19.21
2018-07-28T04:44:10.871Z,19.21
2018-07-28T04:45:10.841Z,19.24
2018-07-28T04:46:10.775Z,19.33
2018-07-28T04:47:10.741Z,19.36
2018-07-28T04:48:10.694Z,19.30
2018-07-28T04:49:10.650Z,19.37
2018-07-28T04:50:10.608Z,19.30
2018-07-28T04:51:10.598Z,19.29
2018-07-28T04:52:10.516Z,19.33
2018-07-28T04:53:10.470Z,19.41
2018-07-28T04:54:10.410Z,19.41
2018-07-28T04:55:10.360Z,19.40
2018-07-28T04:56:10.324Z,19.49
2018-07-28T04:57:10.273Z,19.44
2018-07-28T04:58:10.231Z,19.40
2018-07-28T04:59:10.196Z,19.44
2018-07-28T05:00:10.140Z,19.40
2018-07-28T05:01:10.097Z,19.44
2018-07-28T05:02:10.053Z,19.40
2018-07-28T05:03:10.011Z,19.29
2018-07-28T05:04:09.955Z,19.34
2018-07-28T05:05:09.929Z,19.31
2018-07-28T05:06:09.848Z,19.30
2018-07-28T05:07:09.845Z,19.29
2018-07-28T05:08:09.766Z,19.27
2018-07-28T05:09:09.719Z,19.26
2018-07-28T05:10:09.675Z,19.31
2018-07-28T05:11:09.636Z,19.26
2018-07-28T05:12:09.585Z,19.19
2018-07-28T05:13:09.558Z,19.14
2018-07-28T05:14:09.497Z,19.14
2018-07-28T05:15:09.466Z,18.93
2018-07-28T05:16:09.413Z,18.99
2018-07-28T05:17:09.370Z,18.90
2018-07-28T05:18:09.323Z,18.95
2018-07-28T05:19:09.249Z,18.96
2018-07-28T05:20:09.213Z,18.96
2018-07-28T05:21:09.167Z,18.92
2018-07-28T05:22:09.129Z,18.98
2018-07-28T05:23:09.086Z,18.92
2018-07-28T05:24:09.028Z,18.95
2018-07-28T05:25:08.981Z,18.95
2018-07-28T05:26:08.935Z,18.99
2018-07-28T05:27:08.904Z,18.92
2018-07-28T05:28:08.844Z,18.93
2018-07-28T05:29:08.795Z,18.88
2018-07-28T05:30:08.765Z,18.83
2018-07-28T05:31:08.716Z,18.86
2018-07-28T05:32:08.721Z,18.90
2018-07-28T05:33:08.609Z,18.80
2018-07-28T05:34:08.574Z,18.70
2018-07-28T05:35:08.524Z,18.89
2018-07-28T05:36:08.476Z,18.70
2018-07-28T05:37:08.479Z,18.77
2018-07-28T05:38:08.398Z,18.75
2018-07-28T05:39:08.372Z,18.86
2018-07-28T05:40:08.296Z,18.74
2018-07-28T05:41:08.246Z,18.78
2018-07-28T05:42:08.201Z,18.75
2018-07-28T05:43:08.160Z,18.77
2018-07-28T05:44:08.110Z,18.70
2018-07-28T05:45:08.065Z,18.74
2018-07-28T05:46:08.021Z,18.78
2018-07-28T05:47:07.971Z,18.77
2018-07-28T05:48:07.917Z,18.77
2018-07-28T05:49:07.870Z,18.90
2018-07-28T05:50:07.941Z,18.74
2018-07-28T05:51:07.792Z,18.77
2018-07-28T05:52:07.731Z,18.73
2018-07-28T05:53:07.688Z,18.63
2018-07-28T05:54:07.662Z,18.71
2018-07-28T05:55:07.605Z,18.68
2018-07-28T05:56:07.563Z,18.68
2018-07-28T05:57:07.512Z,18.73
2018-07-28T05:58:07.457Z,18.66
2018-07-28T05:59:07.398Z,18.60
2018-07-28T06:00:07.361Z,18.58
2018-07-28T06:01:07.305Z,18.66
2018-07-28T06:02:07.318Z,18.68
2018-07-28T06:03:07.241Z,18.73
2018-07-28T06:04:07.185Z,18.84
2018-07-28T06:05:07.142Z,18.70
2018-07-28T06:06:07.077Z,18.70
2018-07-28T06:07:07.049Z,18.75
2018-07-28T06:08:06.991Z,18.83
2018-07-28T06:09:06.950Z,18.89
2018-07-28T06:10:06.897Z,18.83
2018-07-28T06:11:06.876Z,18.84
2018-07-28T06:12:06.808Z,18.78
2018-07-28T06:13:06.775Z,18.77
2018-07-28T06:14:06.742Z,18.70
2018-07-28T06:15:06.669Z,18.83
2018-07-28T06:16:06.602Z,18.86
2018-07-28T06:17:06.600Z,18.84
2018-07-28T06:18:06.543Z,18.83
2018-07-28T06:19:06.491Z,18.93
2018-07-28T06:20:06.448Z,18.88
2018-07-28T06:21:06.398Z,18.73
2018-07-28T06:22:06.360Z,18.75
2018-07-28T06:23:06.303Z,18.77
2018-07-28T06:24:06.273Z,18.74
2018-07-28T06:25:06.207Z,18.70
2018-07-28T06:26:06.189Z,18.68
2018-07-28T06:27:06.117Z,18.71
2018-07-28T06:28:06.065Z,18.73
2018-07-28T06:29:06.024Z,18.75
2018-07-28T06:30:05.991Z,18.71
2018-07-28T06:31:05.930Z,18.63
2018-07-28T06:32:05.886Z,18.58
2018-07-28T06:33:05.846Z,18.68
2018-07-28T06:34:05.798Z,18.68
2018-07-28T06:35:05.758Z,18.59
2018-07-28T06:36:05.699Z,18.56
2018-07-28T06:37:05.654Z,18.56
2018-07-28T06:38:05.601Z,18.59
2018-07-28T06:39:05.554Z,18.63
2018-07-28T06:40:05.527Z,18.59
2018-07-28T06:41:05.466Z,18.62
2018-07-28T06:42:05.420Z,18.59
2018-07-28T06:43:05.377Z,18.55
2018-07-28T06:44:05.325Z,18.49
2018-07-28T06:45:05.283Z,18.50
2018-07-28T06:46:05.229Z,18.63
2018-07-28T06:47:05.184Z,18.47
2018-07-28T06:48:05.130Z,18.49
2018-07-28T06:49:05.089Z,18.40
2018-07-28T06:50:05.033Z,18.44
2018-07-28T06:51:04.986Z,18.35
2018-07-28T06:52:04.959Z,18.33
2018-07-28T06:53:04.908Z,18.31
2018-07-28T06:54:04.857Z,18.41
2018-07-28T06:55:04.824Z,18.47
2018-07-28T06:56:04.771Z,18.35
2018-07-28T06:57:04.718Z,18.45
2018-07-28T06:58:04.678Z,18.31
2018-07-28T06:59:04.635Z,18.44
2018-07-28T07:00:04.591Z,18.45
2018-07-28T07:01:04.532Z,18.44
2018-07-28T07:02:04.487Z,18.40
2018-07-28T07:03:04.433Z,18.41
2018-07-28T07:04:04.393Z,18.33
2018-07-28T07:05:04.360Z,18.34
2018-07-28T07:06:04.295Z,18.40
2018-07-28T07:07:04.253Z,18.40
2018-07-28T07:08:04.219Z,18.49
2018-07-28T07:09:04.169Z,18.52
2018-07-28T07:10:04.128Z,18.50
2018-07-28T07:11:04.068Z,18.40
2018-07-28T07:12:04.029Z,18.55
2018-07-28T07:13:03.962Z,18.55
2018-07-28T07:14:03.939Z,18.45
2018-07-28T07:15:03.898Z,18.43
2018-07-28T07:16:03.836Z,18.38
2018-07-28T07:17:03.790Z,18.31
2018-07-28T07:18:03.742Z,18.34
2018-07-28T07:19:03.715Z,18.29
2018-07-28T07:20:03.662Z,18.20
2018-07-28T07:21:03.611Z,18.31
2018-07-28T07:22:03.570Z,18.37
2018-07-28T07:23:03.509Z,18.34
2018-07-28T07:24:03.467Z,18.53
2018-07-28T07:25:03.427Z,18.47
2018-07-28T07:26:03.388Z,18.52
2018-07-28T07:27:03.335Z,18.55
2018-07-28T07:28:03.290Z,18.52
2018-07-28T07:29:03.235Z,18.56
2018-07-28T07:30:03.197Z,18.43
2018-07-28T07:31:03.146Z,18.45
2018-07-28T07:32:03.103Z,18.34
2018-07-28T07:33:03.046Z,18.35
2018-07-28T07:34:03.006Z,18.31
2018-07-28T07:35:02.945Z,18.25
2018-07-28T07:36:02.966Z,18.19
2018-07-28T07:37:02.868Z,18.22
2018-07-28T07:38:02.862Z,18.18
2018-07-28T07:39:02.766Z,18.13
2018-07-28T07:40:02.719Z,18.33
2018-07-28T07:41:02.679Z,18.13
2018-07-28T07:42:02.635Z,18.22
2018-07-28T07:43:02.595Z,18.07
2018-07-28T07:44:02.541Z,18.13
2018-07-28T07:45:02.491Z,18.16
2018-07-28T07:46:02.439Z,18.22
2018-07-28T07:47:02.404Z,18.26
2018-07-28T07:48:02.338Z,18.18
2018-07-28T07:49:02.300Z,18.31
2018-07-28T07:50:02.254Z,18.38
2018-07-28T07:51:02.209Z,18.45
2018-07-28T07:52:02.164Z,18.40
2018-07-28T07:53:02.121Z,18.25
2018-07-28T07:54:02.201Z,18.35
2018-07-28T07:55:02.037Z,18.44
2018-07-28T07:56:01.985Z,18.37
2018-07-28T07:57:01.937Z,18.31
2018-07-28T07:58:01.890Z,18.33
2018-07-28T07:59:01.839Z,18.11
2018-07-28T08:00:01.794Z,18.23
2018-07-28T08:01:01.741Z,18.10
2018-07-28T08:02:01.705Z,18.08
2018-07-28T08:03:01.662Z,17.95
2018-07-28T08:04:01.582Z,18.04
2018-07-28T08:05:01.572Z,18.03
2018-07-28T08:06:01.508Z,18.01
2018-07-28T08:07:01.471Z,17.95
2018-07-28T08:08:01.427Z,18.00
2018-07-28T08:09:01.378Z,18.00
2018-07-28T08:10:01.329Z,17.97
2018-07-28T08:11:01.283Z,18.01
2018-07-28T08:12:01.224Z,18.10
2018-07-28T08:13:01.190Z,18.04
2018-07-28T08:14:01.135Z,18.13
2018-07-28T08:15:01.097Z,18.19
2018-07-28T08:16:01.042Z,18.10
2018-07-28T08:17:00.980Z,18.19
2018-07-28T08:18:00.957Z,18.18
2018-07-28T08:19:00.910Z,18.13
2018-07-28T08:20:00.879Z,18.05
2018-07-28T08:21:00.860Z,18.13
2018-07-28T08:22:00.768Z,17.95
2018-07-28T08:23:00.740Z,17.90
2018-07-28T08:24:00.656Z,17.86
2018-07-28T08:25:00.603Z,17.90
2018-07-28T08:26:00.584Z,17.90
2018-07-28T08:27:00.554Z,18.04
2018-07-28T08:28:00.492Z,18.00
2018-07-28T08:29:00.459Z,17.98
2018-07-28T08:30:00.393Z,18.00
2018-07-28T08:31:00.355Z,18.13
2018-07-28T08:32:00.299Z,18.04
2018-07-28T08:33:00.248Z,17.97
2018-07-28T08:34:00.203Z,18.03
2018-07-28T08:35:00.147Z,18.04
2018-07-28T08:36:00.103Z,17.90
2018-07-28T08:37:00.068Z,18.00
2018-07-28T08:38:00.021Z,17.97
2018-07-28T08:38:59.980Z,17.87
2018-07-28T08:40:00.040Z,17.89
2018-07-28T08:40:59.896Z,17.89
2018-07-28T08:41:59.836Z,17.90
2018-07-28T08:42:59.781Z,17.86
2018-07-28T08:43:59.747Z,17.68
2018-07-28T08:44:59.694Z,17.79
2018-07-28T08:45:59.657Z,17.89
2018-07-28T08:46:59.601Z,17.98
2018-07-28T08:47:59.572Z,17.94
2018-07-28T08:48:59.565Z,18.00
2018-07-28T08:49:59.454Z,18.00
2018-07-28T08:50:59.427Z,17.95
2018-07-28T08:51:59.363Z,18.01
2018-07-28T08:52:59.334Z,17.97
2018-07-28T08:53:59.276Z,18.01
2018-07-28T08:54:59.234Z,17.97
2018-07-28T08:55:59.183Z,17.90
2018-07-28T08:56:59.144Z,17.87
2018-07-28T08:57:59.081Z,17.94
2018-07-28T08:58:59.038Z,17.87
2018-07-28T08:59:58.989Z,17.89
2018-07-28T09:00:58.955Z,17.79
2018-07-28T09:01:58.903Z,17.83
2018-07-28T09:02:58.847Z,17.86
2018-07-28T09:03:58.805Z,17.82
2018-07-28T09:04:58.762Z,17.68
2018-07-28T09:05:58.759Z,17.74
2018-07-28T09:06:58.660Z,17.65
2018-07-28T09:07:58.622Z,17.54
2018-07-28T09:08:58.550Z,17.57
2018-07-28T09:09:58.528Z,17.64
2018-07-28T09:10:58.480Z,17.67
2018-07-28T09:11:58.426Z,17.65
2018-07-28T09:12:58.385Z,17.78
2018-07-28T09:13:58.352Z,17.67
2018-07-28T09:14:58.293Z,17.67
2018-07-28T09:15:58.243Z,17.56
2018-07-28T09:16:58.184Z,17.64
2018-07-28T09:17:58.163Z,17.67
2018-07-28T09:18:58.107Z,17.68
2018-07-28T09:19:58.052Z,17.79
2018-07-28T09:20:58.029Z,17.87
2018-07-28T09:21:57.965Z,17.82
2018-07-28T09:22:57.923Z,17.85
2018-07-28T09:23:57.859Z,17.85
2018-07-28T09:24:57.817Z,17.87
2018-07-28T09:25:57.762Z,17.86
2018-07-28T09:26:57.737Z,17.78
2018-07-28T09:27:57.680Z,17.70
2018-07-28T09:28:57.639Z,17.67
2018-07-28T09:29:57.596Z,17.71
2018-07-28T09:30:57.544Z,17.68
2018-07-28T09:31:57.494Z,17.60
2018-07-28T09:32:57.455Z,17.67
2018-07-28T09:33:57.410Z,17.54
2018-07-28T09:34:57.362Z,17.64
2018-07-28T09:35:57.312Z,17.65
2018-07-28T09:36:57.298Z,17.74
2018-07-28T09:37:57.233Z,17.64
2018-07-28T09:38:57.144Z,17.52
2018-07-28T09:39:57.119Z,17.60
2018-07-28T09:40:57.075Z,17.57
2018-07-28T09:41:57.022Z,17.57
2018-07-28T09:42:57.000Z,17.48
2018-07-28T09:43:56.937Z,17.48
2018-07-28T09:44:56.886Z,17.45
2018-07-28T09:45:56.846Z,17.41
2018-07-28T09:46:56.818Z,17.38
2018-07-28T09:47:56.748Z,17.42
2018-07-28T09:48:56.695Z,17.39
2018-07-28T09:49:56.673Z,17.38
2018-07-28T09:50:56.603Z,17.41
2018-07-28T09:51:56.580Z,17.42
2018-07-28T09:52:56.509Z,17.39
2018-07-28T09:53:56.477Z,17.46
2018-07-28T09:54:56.424Z,17.52
2018-07-28T09:55:56.382Z,17.60
2018-07-28T09:56:56.343Z,17.65
2018-07-28T09:57:56.330Z,17.74
2018-07-28T09:58:56.232Z,17.68
2018-07-28T09:59:56.190Z,17.68
2018-07-28T10:00:56.140Z,17.71
2018-07-28T10:01:56.092Z,17.70
2018-07-28T10:02:56.040Z,17.64
2018-07-28T10:03:56.004Z,17.74
2018-07-28T10:04:55.963Z,17.68
2018-07-28T10:05:55.909Z,17.67
2018-07-28T10:06:55.859Z,17.64
2018-07-28T10:07:55.806Z,17.65
2018-07-28T10:08:55.762Z,17.64
2018-07-28T10:09:55.707Z,17.71
2018-07-28T10:10:55.665Z,17.68
2018-07-28T10:11:55.628Z,17.78
2018-07-28T10:12:55.581Z,17.74
2018-07-28T10:13:55.535Z,17.67
2018-07-28T10:14:55.481Z,17.64
2018-07-28T10:15:55.434Z,17.63
2018-07-28T10:16:55.394Z,17.63
2018-07-28T10:17:55.354Z,17.65
2018-07-28T10:18:55.294Z,17.67
2018-07-28T10:19:55.248Z,17.72
2018-07-28T10:20:55.213Z,17.68
2018-07-28T10:21:55.147Z,17.78
2018-07-28T10:22:55.162Z,17.71
2018-07-28T10:23:55.069Z,17.78
2018-07-28T10:24:55.038Z,17.70
2018-07-28T10:25:54.975Z,17.68
2018-07-28T10:26:54.935Z,17.76
2018-07-28T10:27:54.876Z,17.83
2018-07-28T10:28:54.835Z,17.97
2018-07-28T10:29:54.784Z,18.03
2018-07-28T10:30:54.742Z,17.98
2018-07-28T10:31:54.708Z,17.90
2018-07-28T10:32:54.642Z,17.90
2018-07-28T10:33:54.607Z,17.90
2018-07-28T10:34:54.555Z,17.94
2018-07-28T10:35:54.489Z,18.05
2018-07-28T10:36:54.465Z,18.15
2018-07-28T10:37:54.417Z,18.23
2018-07-28T10:38:54.377Z,18.29
2018-07-28T10:39:54.324Z,18.33
2018-07-28T10:40:54.287Z,18.60
2018-07-28T10:41:54.242Z,18.84
2018-07-28T10:42:54.191Z,19.07
2018-07-28T10:43:54.154Z,19.26
2018-07-28T10:44:54.114Z,19.37
2018-07-28T10:45:54.053Z,19.67
2018-07-28T10:46:54.023Z,19.79
2018-07-28T10:47:53.982Z,19.84
2018-07-28T10:48:53.932Z,20.06
2018-07-28T10:49:53.897Z,20.10
2018-07-28T10:50:53.844Z,20.13
2018-07-28T10:51:53.862Z,20.44
2018-07-28T10:52:53.771Z,20.48
2018-07-28T10:53:53.726Z,20.74
2018-07-28T10:54:53.681Z,20.95
2018-07-28T10:55:53.628Z,21.09
2018-07-28T10:56:53.621Z,21.40
2018-07-28T10:57:53.571Z,21.45
2018-07-28T10:58:53.523Z,21.27
2018-07-28T10:59:53.485Z,21.27
2018-07-28T11:00:53.450Z,21.55
2018-07-28T11:01:53.415Z,21.85
2018-07-28T11:02:53.378Z,22.07
2018-07-28T11:03:53.319Z,22.17
2018-07-28T11:04:53.294Z,22.45
2018-07-28T11:05:53.260Z,22.51
2018-07-28T11:06:53.230Z,22.51
2018-07-28T11:07:53.194Z,22.73
2018-07-28T11:08:53.147Z,22.87
2018-07-28T11:09:53.103Z,22.84
2018-07-28T11:10:53.086Z,22.99
2018-07-28T11:11:53.049Z,22.84
2018-07-28T11:12:53.013Z,23.05
2018-07-28T11:13:52.975Z,23.27
2018-07-28T11:14:52.941Z,23.39
2018-07-28T11:15:52.913Z,23.32
2018-07-28T11:16:52.852Z,23.36
2018-07-28T11:17:52.824Z,23.31
2018-07-28T11:18:52.825Z,23.25
2018-07-28T11:19:52.755Z,23.10
2018-07-28T11:20:52.720Z,23.12
2018-07-28T11:21:52.683Z,23.09
2018-07-28T11:22:52.626Z,22.99
2018-07-28T11:23:52.597Z,22.78
2018-07-28T11:24:52.564Z,22.68
2018-07-28T11:25:52.541Z,22.53
2018-07-28T11:26:52.492Z,22.55
2018-07-28T11:27:52.454Z,22.25
2018-07-28T11:28:52.404Z,22.17
2018-07-28T11:29:52.371Z,22.23
2018-07-28T11:30:52.319Z,22.23
2018-07-28T11:31:52.305Z,22.02
2018-07-28T11:32:52.258Z,22.10
2018-07-28T11:33:52.199Z,21.92
2018-07-28T11:34:52.156Z,21.91
2018-07-28T11:35:52.112Z,21.93
2018-07-28T11:36:52.087Z,21.76
2018-07-28T11:37:52.079Z,21.80
2018-07-28T11:38:51.982Z,21.76
2018-07-28T11:39:51.952Z,21.75
2018-07-28T11:40:51.887Z,21.57
2018-07-28T11:41:51.855Z,21.64
2018-07-28T11:42:51.820Z,21.66
2018-07-28T11:43:51.771Z,21.58
2018-07-28T11:44:51.740Z,21.57
2018-07-28T11:45:51.698Z,21.55
2018-07-28T11:46:51.648Z,21.60
2018-07-28T11:47:51.609Z,21.60
2018-07-28T11:48:51.567Z,21.66
2018-07-28T11:49:51.519Z,21.60
2018-07-28T11:50:51.492Z,21.69
2018-07-28T11:51:51.417Z,21.57
2018-07-28T11:52:51.380Z,21.62
2018-07-28T11:53:51.351Z,21.66
2018-07-28T11:54:51.293Z,21.69
2018-07-28T11:55:51.257Z,21.79
2018-07-28T11:56:51.226Z,21.69
2018-07-28T11:57:51.161Z,21.70
2018-07-28T11:58:51.142Z,21.70
2018-07-28T11:59:51.057Z,21.76
2018-07-28T12:00:51.043Z,21.75
2018-07-28T12:01:51.054Z,21.79
2018-07-28T12:02:50.955Z,21.85
2018-07-28T12:03:50.894Z,21.91
2018-07-28T12:04:50.857Z,21.77
2018-07-28T12:05:50.811Z,21.80
2018-07-28T12:06:50.782Z,21.72
2018-07-28T12:07:50.735Z,21.95
2018-07-28T12:08:50.682Z,21.85
2018-07-28T12:09:50.645Z,21.95
2018-07-28T12:10:50.592Z,21.85
2018-07-28T12:11:50.552Z,21.80
2018-07-28T12:12:50.690Z,21.79
2018-07-28T12:13:50.464Z,21.80
2018-07-28T12:14:50.432Z,21.83
2018-07-28T12:15:50.372Z,21.91
2018-07-28T12:16:50.340Z,21.91
2018-07-28T12:17:50.302Z,21.98
2018-07-28T12:18:50.248Z,21.89
2018-07-28T12:19:50.206Z,21.83
2018-07-28T12:20:50.160Z,21.92
2018-07-28T12:21:50.109Z,21.95
2018-07-28T12:22:50.065Z,22.00
2018-07-28T12:23:50.083Z,21.99
2018-07-28T12:24:49.976Z,22.08
2018-07-28T12:25:49.917Z,22.04
2018-07-28T12:26:49.892Z,22.10
2018-07-28T12:27:49.853Z,22.07
2018-07-28T12:28:49.816Z,22.08
2018-07-28T12:29:49.749Z,22.18
2018-07-28T12:30:49.722Z,22.18
2018-07-28T12:31:49.674Z,22.22
2018-07-28T12:32:49.627Z,22.23
2018-07-28T12:33:49.562Z,22.28
2018-07-28T12:34:49.553Z,22.23
2018-07-28T12:35:49.494Z,22.23
2018-07-28T12:36:49.459Z,22.23
2018-07-28T12:37:49.392Z,22.20
2018-07-28T12:38:49.364Z,22.22
2018-07-28T12:39:49.311Z,22.20
2018-07-28T12:40:49.301Z,22.26
2018-07-28T12:41:49.244Z,22.22
2018-07-28T12:42:49.196Z,22.28
2018-07-28T12:43:49.136Z,22.43
2018-07-28T12:44:49.103Z,22.38
2018-07-28T12:45:49.073Z,22.30
2018-07-28T12:46:49.019Z,22.41
2018-07-28T12:47:48.984Z,22.39
2018-07-28T12:48:48.933Z,22.39
2018-07-28T12:49:48.894Z,22.48
2018-07-28T12:50:48.838Z,22.55
2018-07-28T12:51:48.789Z,22.65